Hibbing, MN

11:12 AM CDT on July 24, 2016 (GMT -0500)
Chisholm-hibbing | | Change Station

Elev 1352 ft 47.39 °N, 92.84 °W | Updated 19 minutes ago

Partly Cloudy
Partly Cloudy
73 °F
Feels Like 73 °F
N
9
Wind Variable Wind from West

Today
High -- | Low -- °F
--% Chance of Precip.
Yesterday
High -- | Low -- °F
Precip. -- in
Pressure 29.79 in
Visibility 10.0 miles
Clouds Few 3200 ft
Dew Point 61 °F
Humidity 66%
Rainfall 0.02 in
Snow Depth Not available.
5:40 AM 8:54 PM
Waning Gibbous, 75% visible
METAR KHIB 241553Z AUTO 27008KT 240V300 10SM FEW032 23/16 A2980 RMK AO2 SLP088 T02280161
Pressure 29.79 in
Visibility 10.0 miles
Clouds Few 3200 ft
Dew Point 61 °F
Humidity 66%
Rainfall 0.02 in
Snow Depth Not available.
5:40 AM 8:54 PM
Waning Gibbous, 75% visible
METAR KHIB 241553Z AUTO 27008KT 240V300 10SM FEW032 23/16 A2980 RMK AO2 SLP088 T02280161

10-Day Weather Forecast

Almanac

Astronomy

Jul. 24, 2016 Rise Set
Actual Time
Civil Twilight
Nautical Twilight
Astronomical Twilight
Moon
Length of Visible Light
Length of Day
Tomorrow will be .
, % of the Moon is Illuminated

Today's Extremes

State Highs State Lows

Community

WunderPhotos

Upload Photos

1,927,120 photos uploaded!

WunderBlog® & News

Nearby

Air Quality

  Air Quality AQ Index Pollutant
Not available.

Snow Depth

Station Depth Elevation

Earthquake Activity

City Distance Mag. Time & Date
Minimum magnitude displayed is 2.5.

Coastal Water Temperatures

Place Temperature

Stations

Nearby Weather Stations

Station Location Temp. Windchill Dew Point Humidity Wind Precip. Elev Updated Type
                   

Watches & Warnings

There are currently no watches in effect.